createdAt,value
2022-10-02T00:01:01.769Z,16.20
2022-10-02T00:03:33.819Z,16.20
2022-10-02T00:06:06.348Z,16.20
2022-10-02T00:08:38.923Z,16.20
2022-10-02T00:11:11.456Z,16.20
2022-10-02T00:13:43.967Z,16.20
2022-10-02T00:16:19.251Z,16.00
2022-10-02T00:18:53.626Z,16.00
2022-10-02T00:21:26.153Z,16.10
2022-10-02T00:24:01.178Z,16.00
2022-10-02T00:26:34.018Z,16.00
2022-10-02T00:29:24.810Z,16.00
2022-10-02T00:31:57.395Z,16.00
2022-10-02T00:34:33.028Z,16.00
2022-10-02T00:37:38.497Z,16.00
2022-10-02T00:40:40.000Z,16.00
2022-10-02T00:43:15.145Z,16.00
2022-10-02T00:45:56.353Z,16.00
2022-10-02T00:48:46.873Z,15.90
2022-10-02T00:51:35.542Z,16.00
2022-10-02T00:54:41.127Z,16.00
2022-10-02T00:57:14.104Z,16.00
2022-10-02T01:00:05.372Z,15.90
2022-10-02T01:02:43.834Z,15.90
2022-10-02T01:05:14.665Z,15.80
2022-10-02T01:07:46.323Z,15.80
2022-10-02T01:10:16.560Z,15.80
2022-10-02T01:12:46.730Z,15.80
2022-10-02T01:15:21.711Z,15.80
2022-10-02T01:17:54.020Z,15.70
2022-10-02T01:20:38.345Z,15.70
2022-10-02T01:23:34.507Z,15.70
2022-10-02T01:26:04.037Z,15.70
2022-10-02T01:28:33.770Z,15.60
2022-10-02T01:31:10.451Z,15.60
2022-10-02T01:33:41.622Z,15.60
2022-10-02T01:36:12.610Z,15.50
2022-10-02T01:38:43.522Z,15.60
2022-10-02T01:41:13.357Z,15.60
2022-10-02T01:44:01.329Z,15.60
2022-10-02T01:46:45.645Z,15.50
2022-10-02T01:49:22.078Z,15.50
2022-10-02T01:52:00.595Z,15.50
2022-10-02T01:54:53.133Z,15.40
2022-10-02T01:57:34.407Z,15.40
2022-10-02T02:00:18.899Z,15.40
2022-10-02T02:03:00.306Z,15.30
2022-10-02T02:05:47.762Z,15.40
2022-10-02T02:08:28.947Z,15.40
2022-10-02T02:11:04.481Z,15.40
2022-10-02T02:13:36.995Z,15.30
2022-10-02T02:16:24.722Z,15.30
2022-10-02T02:19:04.891Z,15.20
2022-10-02T02:21:42.911Z,15.20
2022-10-02T02:25:47.312Z,15.20
2022-10-02T02:28:20.422Z,15.20
2022-10-02T02:30:55.665Z,15.20
2022-10-02T02:33:37.365Z,15.20
2022-10-02T02:36:16.836Z,15.10
2022-10-02T02:38:52.130Z,15.10
2022-10-02T02:41:27.675Z,15.20
2022-10-02T02:44:08.786Z,15.20
2022-10-02T02:47:05.386Z,15.10
2022-10-02T02:49:49.513Z,15.20
2022-10-02T02:52:24.836Z,15.10
2022-10-02T02:54:57.362Z,15.10
2022-10-02T02:57:29.990Z,15.10
2022-10-02T03:00:02.382Z,15.10
2022-10-02T03:02:31.900Z,15.10
2022-10-02T03:05:01.395Z,15.10
2022-10-02T03:07:31.023Z,15.00
2022-10-02T03:10:03.524Z,15.00
2022-10-02T03:12:36.040Z,14.90
2022-10-02T03:15:08.532Z,14.90
2022-10-02T03:17:41.087Z,14.90
2022-10-02T03:20:13.581Z,14.90
2022-10-02T03:22:52.223Z,15.00
2022-10-02T03:25:34.083Z,14.90
2022-10-02T03:28:37.315Z,14.80
2022-10-02T03:30:52.109Z,14.80
2022-10-02T03:33:23.083Z,14.80
2022-10-02T03:35:52.758Z,14.80
2022-10-02T03:38:25.603Z,14.70
2022-10-02T03:40:57.913Z,14.70
2022-10-02T03:43:30.102Z,14.80
2022-10-02T03:45:59.555Z,14.80
2022-10-02T03:48:28.952Z,14.80
2022-10-02T03:50:59.427Z,14.70
2022-10-02T03:53:33.791Z,14.60
2022-10-02T03:56:08.921Z,14.70
2022-10-02T03:58:41.419Z,14.60
2022-10-02T04:01:20.724Z,14.60
2022-10-02T04:03:58.973Z,14.60
2022-10-02T04:06:31.534Z,14.50
2022-10-02T04:09:04.043Z,14.50
2022-10-02T04:11:37.537Z,14.50
2022-10-02T04:14:10.031Z,14.50
2022-10-02T04:16:42.633Z,14.50
2022-10-02T04:19:24.149Z,14.50
2022-10-02T04:22:05.952Z,14.50
2022-10-02T04:24:45.210Z,14.40
2022-10-02T04:27:26.101Z,14.40
2022-10-02T04:30:01.291Z,14.30
2022-10-02T04:32:33.772Z,14.30
2022-10-02T04:35:04.818Z,14.40
2022-10-02T04:37:39.936Z,14.40
2022-10-02T04:40:12.494Z,14.40
2022-10-02T04:42:50.925Z,14.40
2022-10-02T04:45:47.427Z,14.30
2022-10-02T04:48:41.168Z,14.30
2022-10-02T04:51:46.497Z,14.30
2022-10-02T04:54:38.184Z,14.30
2022-10-02T04:57:16.496Z,14.20
2022-10-02T05:00:06.479Z,14.20
2022-10-02T05:02:41.891Z,14.20
2022-10-02T05:05:20.243Z,14.20
2022-10-02T05:08:01.482Z,14.20
2022-10-02T05:10:54.996Z,14.10
2022-10-02T05:13:42.364Z,14.10
2022-10-02T05:16:24.040Z,14.00
2022-10-02T05:19:19.095Z,14.00
2022-10-02T05:21:57.232Z,14.00
2022-10-02T05:24:35.715Z,14.10
2022-10-02T05:27:26.033Z,14.00
2022-10-02T05:30:10.930Z,14.10
2022-10-02T05:33:19.777Z,14.00
2022-10-02T05:36:27.336Z,14.00
2022-10-02T05:39:12.200Z,14.00
2022-10-02T05:42:05.692Z,13.90
2022-10-02T05:44:41.258Z,13.80
2022-10-02T05:47:22.254Z,13.90
2022-10-02T05:50:03.389Z,13.80
2022-10-02T05:52:41.855Z,13.80
2022-10-02T05:55:26.453Z,13.80
2022-10-02T05:58:10.931Z,13.80
2022-10-02T06:00:46.636Z,13.80
2022-10-02T06:03:31.427Z,13.80
2022-10-02T06:06:12.811Z,13.80
2022-10-02T06:08:46.362Z,13.90
2022-10-02T06:11:18.921Z,13.80
2022-10-02T06:13:51.552Z,13.80
2022-10-02T06:16:24.079Z,13.70
2022-10-02T06:18:56.583Z,13.80
2022-10-02T06:21:38.068Z,13.80
2022-10-02T06:24:10.593Z,13.80
2022-10-02T06:26:48.688Z,13.80
2022-10-02T06:29:27.430Z,13.90
2022-10-02T06:32:05.942Z,13.90
2022-10-02T06:34:35.467Z,14.00
2022-10-02T06:37:30.717Z,14.00
2022-10-02T06:40:12.179Z,14.00
2022-10-02T06:43:01.110Z,14.00
2022-10-02T06:45:50.281Z,14.00
2022-10-02T06:48:48.558Z,14.00
2022-10-02T06:51:35.960Z,14.00
2022-10-02T06:54:18.433Z,13.80
2022-10-02T06:57:11.729Z,14.00
2022-10-02T06:59:45.487Z,14.40
2022-10-02T07:02:26.918Z,14.40
2022-10-02T07:05:21.790Z,15.00
2022-10-02T07:08:26.207Z,15.80
2022-10-02T07:11:07.263Z,16.10
2022-10-02T07:14:00.510Z,15.90
2022-10-02T07:16:37.828Z,15.60
2022-10-02T07:19:19.311Z,16.00
2022-10-02T07:22:39.603Z,16.50
2022-10-02T07:24:54.317Z,16.80
2022-10-02T07:27:55.623Z,16.30
2022-10-02T07:30:25.489Z,16.20
2022-10-02T07:33:07.102Z,17.30
2022-10-02T07:35:41.393Z,17.80
2022-10-02T07:38:13.873Z,18.00
2022-10-02T07:41:04.686Z,18.50
2022-10-02T07:43:49.006Z,18.80
2022-10-02T07:46:24.165Z,18.90
2022-10-02T07:49:05.683Z,18.20
2022-10-02T07:51:53.953Z,18.40
2022-10-02T07:54:36.076Z,18.40
2022-10-02T07:57:26.722Z,18.40
2022-10-02T08:00:02.013Z,17.90
2022-10-02T08:02:39.174Z,19.20
2022-10-02T08:05:11.674Z,19.60
2022-10-02T08:07:40.449Z,19.40
2022-10-02T08:10:12.894Z,18.90
2022-10-02T08:13:03.313Z,18.90
2022-10-02T08:15:35.810Z,18.30
2022-10-02T08:18:33.058Z,19.00
2022-10-02T08:20:44.915Z,19.10
2022-10-02T08:23:19.328Z,19.10
2022-10-02T08:26:20.554Z,18.90
2022-10-02T08:29:10.416Z,19.00
2022-10-02T08:31:39.953Z,19.10
2022-10-02T08:34:16.505Z,19.10
2022-10-02T08:36:54.812Z,18.70
2022-10-02T08:39:44.235Z,18.70
2022-10-02T08:42:39.416Z,18.70
2022-10-02T08:45:35.298Z,18.90
2022-10-02T08:48:41.293Z,19.50
2022-10-02T08:51:18.019Z,20.10
2022-10-02T08:54:09.876Z,20.00
2022-10-02T08:57:03.312Z,20.20
2022-10-02T08:59:33.506Z,20.20
2022-10-02T09:02:27.775Z,20.00
2022-10-02T09:05:35.195Z,20.40
2022-10-02T09:08:32.060Z,20.50
2022-10-02T09:11:16.532Z,20.40
2022-10-02T09:14:16.989Z,20.00
2022-10-02T09:17:06.087Z,20.90
2022-10-02T09:19:56.755Z,21.60
2022-10-02T09:22:47.336Z,21.20
2022-10-02T09:25:22.699Z,20.70
2022-10-02T09:28:17.754Z,20.60
2022-10-02T09:31:05.972Z,20.70
2022-10-02T09:34:11.904Z,20.10
2022-10-02T09:36:53.066Z,20.70
2022-10-02T09:39:28.281Z,20.80
2022-10-02T09:42:06.515Z,22.00
2022-10-02T09:45:07.678Z,22.90
2022-10-02T09:47:53.772Z,24.00
2022-10-02T09:50:32.231Z,23.50
2022-10-02T09:53:04.756Z,22.70
2022-10-02T09:55:55.541Z,22.10
2022-10-02T09:58:59.707Z,20.90
2022-10-02T10:01:45.429Z,22.00
2022-10-02T10:05:04.922Z,22.40
2022-10-02T10:07:34.097Z,23.70
2022-10-02T10:10:32.151Z,24.20
2022-10-02T10:13:23.608Z,24.10
2022-10-02T10:16:12.959Z,24.00
2022-10-02T10:19:00.924Z,24.10
2022-10-02T10:21:48.386Z,24.30
2022-10-02T10:24:51.094Z,23.20
2022-10-02T10:27:38.822Z,24.40
2022-10-02T10:30:36.569Z,23.50
2022-10-02T10:33:43.508Z,23.10
2022-10-02T10:37:07.313Z,22.40
2022-10-02T10:40:14.552Z,23.80
2022-10-02T10:43:07.367Z,24.90
2022-10-02T10:45:52.246Z,25.60
2022-10-02T10:48:49.734Z,24.70
2022-10-02T10:51:35.869Z,25.80
2022-10-02T10:54:11.246Z,25.70
2022-10-02T10:57:17.058Z,24.90
2022-10-02T11:00:12.044Z,23.60
2022-10-02T11:03:09.495Z,23.00
2022-10-02T11:06:13.693Z,22.10
2022-10-02T11:10:53.612Z,24.30
2022-10-02T11:13:23.812Z,25.30
2022-10-02T11:16:14.081Z,24.50
2022-10-02T11:19:06.352Z,23.30
2022-10-02T11:21:58.290Z,23.70
2022-10-02T11:24:30.771Z,23.30
2022-10-02T11:27:34.878Z,23.50
2022-10-02T11:30:29.243Z,25.10
2022-10-02T11:33:09.247Z,25.90
2022-10-02T11:35:58.483Z,24.20
2022-10-02T11:38:32.586Z,25.10
2022-10-02T11:41:10.704Z,24.50
2022-10-02T11:44:00.154Z,23.30
2022-10-02T11:46:52.450Z,24.80
2022-10-02T11:49:41.646Z,24.90
2022-10-02T11:52:33.700Z,24.10
2022-10-02T11:55:12.317Z,24.10
2022-10-02T11:57:45.988Z,25.00
2022-10-02T12:00:18.501Z,26.10
2022-10-02T12:03:03.351Z,24.90
2022-10-02T12:05:56.209Z,25.00
2022-10-02T12:08:47.493Z,24.30
2022-10-02T12:11:53.187Z,23.20
2022-10-02T12:14:34.725Z,23.80
2022-10-02T12:17:09.923Z,24.10
2022-10-02T12:19:44.066Z,23.90
2022-10-02T12:22:46.521Z,25.00
2022-10-02T12:25:52.309Z,25.60
2022-10-02T12:28:50.533Z,25.40
2022-10-02T12:31:32.113Z,25.00
2022-10-02T12:34:07.543Z,25.50
2022-10-02T12:37:05.774Z,25.10
2022-10-02T12:39:59.103Z,24.50
2022-10-02T12:42:32.226Z,24.90
2022-10-02T12:45:27.794Z,24.60
2022-10-02T12:48:08.983Z,25.10
2022-10-02T12:50:56.836Z,25.20
2022-10-02T12:53:45.869Z,25.90
2022-10-02T12:56:24.007Z,25.40
2022-10-02T12:59:20.303Z,25.60
2022-10-02T13:02:10.781Z,26.00
2022-10-02T13:04:57.020Z,25.80
2022-10-02T13:07:46.216Z,25.20
2022-10-02T13:10:33.332Z,24.20
2022-10-02T13:13:35.941Z,24.90
2022-10-02T13:16:23.237Z,25.00
2022-10-02T13:19:11.553Z,25.50
2022-10-02T13:21:55.803Z,24.40
2022-10-02T13:24:46.223Z,24.70
2022-10-02T13:27:21.555Z,24.10
2022-10-02T13:29:58.626Z,25.20
2022-10-02T13:32:34.044Z,24.70
2022-10-02T13:35:27.358Z,24.10
2022-10-02T13:38:23.616Z,24.30
2022-10-02T13:41:17.311Z,24.80
2022-10-02T13:44:01.553Z,25.40
2022-10-02T13:46:39.612Z,25.30
2022-10-02T13:49:18.085Z,24.20
2022-10-02T13:52:14.558Z,24.90
2022-10-02T13:54:48.133Z,24.70
2022-10-02T13:57:37.251Z,24.70
2022-10-02T14:00:24.912Z,24.60
2022-10-02T14:03:13.995Z,24.80
2022-10-02T14:05:49.260Z,25.30
2022-10-02T14:08:44.621Z,25.00
2022-10-02T14:11:22.843Z,25.10
2022-10-02T14:14:11.506Z,24.70
2022-10-02T14:16:44.746Z,24.90
2022-10-02T14:19:29.200Z,24.20
2022-10-02T14:22:07.725Z,24.30
2022-10-02T14:25:01.050Z,24.40
2022-10-02T14:27:33.947Z,24.30
2022-10-02T14:30:07.459Z,23.90
2022-10-02T14:32:48.843Z,23.80
2022-10-02T14:35:32.692Z,24.00
2022-10-02T14:38:26.208Z,24.50
2022-10-02T14:41:01.335Z,24.40
2022-10-02T14:43:39.679Z,24.70
2022-10-02T14:46:18.093Z,24.50
2022-10-02T14:49:10.695Z,24.00
2022-10-02T14:52:01.549Z,24.10
2022-10-02T14:54:42.819Z,24.40
2022-10-02T14:57:20.964Z,23.90
2022-10-02T15:00:01.901Z,23.70
2022-10-02T15:03:09.190Z,23.70
2022-10-02T15:06:02.679Z,24.00
2022-10-02T15:08:41.278Z,23.90
2022-10-02T15:11:25.870Z,23.90
2022-10-02T15:14:01.096Z,23.90
2022-10-02T15:17:08.279Z,23.90
2022-10-02T15:19:50.093Z,23.80
2022-10-02T15:22:37.866Z,23.90
2022-10-02T15:25:19.355Z,23.70
2022-10-02T15:28:35.333Z,23.40
2022-10-02T15:30:57.537Z,23.40
2022-10-02T15:33:42.254Z,23.70
2022-10-02T15:36:38.779Z,23.70
2022-10-02T15:39:23.027Z,23.50
2022-10-02T15:42:04.265Z,23.30
2022-10-02T15:44:45.447Z,23.40
2022-10-02T15:47:35.896Z,23.20
2022-10-02T15:50:23.610Z,23.30
2022-10-02T15:53:22.086Z,23.50
2022-10-02T15:56:20.290Z,23.60
2022-10-02T15:59:10.665Z,23.50
2022-10-02T16:01:49.452Z,23.40
2022-10-02T16:04:44.394Z,23.30
2022-10-02T16:07:36.497Z,23.10
2022-10-02T16:10:26.975Z,23.00
2022-10-02T16:13:08.221Z,22.70
2022-10-02T16:15:55.834Z,22.80
2022-10-02T16:18:47.836Z,22.90
2022-10-02T16:21:39.975Z,22.80
2022-10-02T16:24:12.477Z,22.90
2022-10-02T16:27:10.359Z,22.90
2022-10-02T16:30:05.370Z,22.90
2022-10-02T16:33:00.743Z,22.70
2022-10-02T16:35:51.628Z,22.60
2022-10-02T16:38:50.619Z,22.50
2022-10-02T16:41:53.203Z,22.60
2022-10-02T16:44:47.516Z,22.40
2022-10-02T16:47:23.049Z,22.40
2022-10-02T16:50:12.984Z,22.40
2022-10-02T16:52:51.371Z,22.20
2022-10-02T16:55:29.840Z,22.20
2022-10-02T16:58:18.855Z,22.20
2022-10-02T17:01:04.293Z,22.10
2022-10-02T17:03:39.537Z,22.00
2022-10-02T17:06:21.054Z,21.90
2022-10-02T17:08:54.555Z,21.80
2022-10-02T17:11:32.984Z,21.80
2022-10-02T17:14:26.551Z,21.80
2022-10-02T17:16:59.119Z,21.70
2022-10-02T17:19:37.874Z,21.70
2022-10-02T17:22:12.971Z,21.70
2022-10-02T17:24:57.750Z,21.60
2022-10-02T17:27:35.935Z,21.60
2022-10-02T17:30:11.846Z,21.60
2022-10-02T17:32:50.304Z,21.50
2022-10-02T17:35:31.753Z,21.60
2022-10-02T17:38:12.951Z,21.50
2022-10-02T17:41:04.871Z,21.50
2022-10-02T17:43:40.248Z,21.50
2022-10-02T17:46:21.758Z,21.40
2022-10-02T17:49:10.887Z,21.40
2022-10-02T17:52:02.708Z,21.30
2022-10-02T17:54:56.178Z,21.20
2022-10-02T17:57:40.443Z,21.30
2022-10-02T18:00:23.971Z,21.20
2022-10-02T18:03:21.264Z,21.20
2022-10-02T18:06:21.103Z,21.10
2022-10-02T18:08:59.521Z,21.10
2022-10-02T18:11:47.044Z,21.00
2022-10-02T18:14:36.841Z,21.00
2022-10-02T18:17:19.314Z,21.10
2022-10-02T18:19:51.868Z,21.00
2022-10-02T18:22:52.452Z,21.00
2022-10-02T18:25:34.029Z,21.00
2022-10-02T18:28:38.297Z,21.00
2022-10-02T18:31:53.893Z,20.90
2022-10-02T18:34:43.386Z,20.90
2022-10-02T18:37:23.470Z,20.80
2022-10-02T18:40:23.085Z,20.80
2022-10-02T18:42:58.214Z,20.70
2022-10-02T18:45:42.478Z,20.60
2022-10-02T18:48:20.651Z,20.50
2022-10-02T18:50:53.157Z,20.40
2022-10-02T18:53:42.022Z,20.50
2022-10-02T18:56:13.603Z,20.40
2022-10-02T18:59:07.398Z,20.40
2022-10-02T19:01:56.867Z,20.30
2022-10-02T19:04:47.263Z,20.20
2022-10-02T19:07:19.766Z,20.20
2022-10-02T19:09:52.844Z,20.10
2022-10-02T19:12:25.892Z,20.20
2022-10-02T19:14:58.743Z,20.10
2022-10-02T19:17:33.261Z,20.10
2022-10-02T19:20:05.782Z,20.10
2022-10-02T19:22:38.431Z,19.90
2022-10-02T19:25:15.840Z,19.90
2022-10-02T19:27:50.654Z,19.90
2022-10-02T19:30:29.359Z,19.80
2022-10-02T19:33:11.987Z,19.80
2022-10-02T19:35:44.863Z,19.80
2022-10-02T19:38:26.215Z,19.70
2022-10-02T19:41:00.852Z,19.70
2022-10-02T19:43:35.446Z,19.50
2022-10-02T19:46:09.821Z,19.40
2022-10-02T19:48:39.875Z,19.30
2022-10-02T19:51:18.703Z,19.20
2022-10-02T19:53:50.789Z,19.20
2022-10-02T19:56:32.009Z,19.20
2022-10-02T19:59:20.110Z,19.20
2022-10-02T20:01:55.360Z,19.30
2022-10-02T20:04:28.176Z,19.30
2022-10-02T20:06:59.845Z,19.40
2022-10-02T20:09:32.540Z,19.40
2022-10-02T20:12:11.129Z,19.50
2022-10-02T20:14:52.694Z,19.40
2022-10-02T20:17:22.325Z,19.30
2022-10-02T20:19:58.079Z,19.40
2022-10-02T20:22:39.472Z,19.30
2022-10-02T20:25:29.209Z,19.20
2022-10-02T20:28:07.539Z,19.20
2022-10-02T20:30:43.084Z,19.30
2022-10-02T20:33:36.521Z,19.30
2022-10-02T20:36:09.578Z,19.40
2022-10-02T20:39:00.114Z,19.30
2022-10-02T20:41:44.801Z,19.30
2022-10-02T20:44:14.317Z,19.30
2022-10-02T20:47:03.229Z,19.30
2022-10-02T20:49:59.787Z,19.20
2022-10-02T20:52:49.123Z,19.20
2022-10-02T20:55:21.804Z,19.20
2022-10-02T20:58:06.020Z,19.10
2022-10-02T21:00:50.679Z,19.10
2022-10-02T21:03:32.236Z,19.10
2022-10-02T21:06:19.742Z,19.00
2022-10-02T21:09:04.235Z,18.90
2022-10-02T21:11:54.935Z,18.90
2022-10-02T21:14:43.479Z,18.90
2022-10-02T21:17:34.364Z,18.80
2022-10-02T21:20:46.297Z,18.80
2022-10-02T21:23:29.303Z,18.80
2022-10-02T21:26:19.602Z,18.80
2022-10-02T21:29:07.263Z,18.70
2022-10-02T21:31:46.364Z,18.70
2022-10-02T21:34:41.615Z,18.70
2022-10-02T21:37:26.025Z,18.60
2022-10-02T21:40:18.419Z,18.60
2022-10-02T21:43:07.816Z,18.50
2022-10-02T21:46:02.814Z,18.40
2022-10-02T21:48:50.297Z,18.50
2022-10-02T21:51:46.799Z,18.50
2022-10-02T21:54:34.076Z,18.50
2022-10-02T21:57:21.510Z,18.50
2022-10-02T22:00:24.057Z,18.40
2022-10-02T22:03:12.474Z,18.30
2022-10-02T22:06:07.552Z,18.20
2022-10-02T22:08:50.364Z,18.20
2022-10-02T22:11:39.526Z,18.10
2022-10-02T22:14:15.418Z,18.10
2022-10-02T22:17:10.277Z,18.10
2022-10-02T22:19:45.817Z,18.10
2022-10-02T22:22:30.525Z,18.10
2022-10-02T22:25:23.983Z,18.00
2022-10-02T22:27:56.572Z,18.10
2022-10-02T22:30:26.929Z,18.00
2022-10-02T22:33:10.921Z,18.00
2022-10-02T22:36:03.013Z,18.00
2022-10-02T22:38:56.642Z,17.90
2022-10-02T22:41:41.375Z,17.90
2022-10-02T22:44:29.646Z,17.90
2022-10-02T22:47:08.378Z,17.90
2022-10-02T22:49:40.871Z,17.70
2022-10-02T22:52:20.200Z,17.20
2022-10-02T22:55:01.970Z,17.10
2022-10-02T22:57:34.771Z,17.40
2022-10-02T23:00:07.751Z,17.50
2022-10-02T23:02:40.245Z,17.50
2022-10-02T23:05:18.411Z,17.50
2022-10-02T23:07:59.850Z,17.60
2022-10-02T23:10:32.326Z,17.60
2022-10-02T23:13:08.258Z,17.50
2022-10-02T23:15:55.815Z,17.60
2022-10-02T23:18:40.103Z,17.50
2022-10-02T23:21:44.594Z,17.40
2022-10-02T23:24:19.667Z,17.40
2022-10-02T23:26:52.167Z,17.50
2022-10-02T23:29:27.328Z,17.40
2022-10-02T23:32:11.868Z,17.40
2022-10-02T23:34:53.346Z,17.30
2022-10-02T23:37:42.215Z,17.40
2022-10-02T23:40:50.702Z,17.30
2022-10-02T23:43:26.022Z,17.30
2022-10-02T23:46:05.987Z,17.30
2022-10-02T23:48:37.219Z,17.30
2022-10-02T23:51:15.079Z,17.20
2022-10-02T23:53:47.675Z,17.20
2022-10-02T23:56:22.747Z,17.20
2022-10-02T23:59:01.196Z,17.20
